createdAt,value
2019-01-14T00:00:39.195Z,997.76
2019-01-14T00:01:39.695Z,997.87
2019-01-14T00:02:39.090Z,997.86
2019-01-14T00:03:39.056Z,997.80
2019-01-14T00:04:39.209Z,997.81
2019-01-14T00:05:39.031Z,997.82
2019-01-14T00:06:39.087Z,997.86
2019-01-14T00:07:39.208Z,997.81
2019-01-14T00:08:39.037Z,997.83
2019-01-14T00:09:39.704Z,997.95
2019-01-14T00:10:38.981Z,997.84
2019-01-14T00:11:38.959Z,997.82
2019-01-14T00:12:39.694Z,997.75
2019-01-14T00:13:38.939Z,997.84
2019-01-14T00:14:39.709Z,997.78
2019-01-14T00:15:38.925Z,997.78
2019-01-14T00:16:40.721Z,997.79
2019-01-14T00:17:38.900Z,997.82
2019-01-14T00:18:40.718Z,997.92
2019-01-14T00:19:46.709Z,997.81
2019-01-14T00:20:39.192Z,997.81
2019-01-14T00:21:39.222Z,997.98
2019-01-14T00:22:41.694Z,997.87
2019-01-14T00:23:38.832Z,997.95
2019-01-14T00:24:38.820Z,997.90
2019-01-14T00:25:38.809Z,997.99
2019-01-14T00:26:38.842Z,998.05
2019-01-14T00:27:44.201Z,998.03
2019-01-14T00:28:38.781Z,998.00
2019-01-14T00:29:38.769Z,997.99
2019-01-14T00:30:39.728Z,997.92
2019-01-14T00:31:38.784Z,998.08
2019-01-14T00:32:39.699Z,998.06
2019-01-14T00:33:38.722Z,998.15
2019-01-14T00:34:39.202Z,998.27
2019-01-14T00:35:41.199Z,998.09
2019-01-14T00:36:38.692Z,998.03
2019-01-14T00:37:40.209Z,998.17
2019-01-14T00:38:38.668Z,998.20
2019-01-14T00:39:40.201Z,998.25
2019-01-14T00:40:38.648Z,998.21
2019-01-14T00:41:38.694Z,998.14
2019-01-14T00:42:38.694Z,998.19
2019-01-14T00:43:38.612Z,998.15
2019-01-14T00:44:39.206Z,998.12
2019-01-14T00:45:38.589Z,998.12
2019-01-14T00:46:39.192Z,998.24
2019-01-14T00:47:40.209Z,998.15
2019-01-14T00:48:41.701Z,998.35
2019-01-14T00:49:38.588Z,998.25
2019-01-14T00:50:38.537Z,998.47
2019-01-14T00:51:38.524Z,998.38
2019-01-14T00:52:40.260Z,998.30
2019-01-14T00:53:41.195Z,998.18
2019-01-14T00:54:38.773Z,998.25
2019-01-14T00:55:38.481Z,998.30
2019-01-14T00:56:43.720Z,998.24
2019-01-14T00:57:38.490Z,998.24
2019-01-14T00:58:38.451Z,998.31
2019-01-14T00:59:41.191Z,998.34
2019-01-14T01:00:38.469Z,998.32
2019-01-14T01:01:39.191Z,998.49
2019-01-14T01:02:40.718Z,998.40
2019-01-14T01:03:38.448Z,998.45
2019-01-14T01:04:38.387Z,998.53
2019-01-14T01:05:38.427Z,998.28
2019-01-14T01:06:38.361Z,998.47
2019-01-14T01:07:38.355Z,998.45
2019-01-14T01:08:38.354Z,998.49
2019-01-14T01:09:38.694Z,998.48
2019-01-14T01:10:39.203Z,998.47
2019-01-14T01:11:38.701Z,998.49
2019-01-14T01:12:38.298Z,998.49
2019-01-14T01:13:38.291Z,998.47
2019-01-14T01:14:40.207Z,998.55
2019-01-14T01:15:38.264Z,998.60
2019-01-14T01:16:38.689Z,998.50
2019-01-14T01:17:38.243Z,998.53
2019-01-14T01:18:39.191Z,998.48
2019-01-14T01:19:38.260Z,998.50
2019-01-14T01:20:38.225Z,998.53
2019-01-14T01:21:40.201Z,998.49
2019-01-14T01:22:39.721Z,998.68
2019-01-14T01:23:38.225Z,998.67
2019-01-14T01:24:38.242Z,998.78
2019-01-14T01:25:38.241Z,998.72
2019-01-14T01:26:38.195Z,998.83
2019-01-14T01:27:38.146Z,998.87
2019-01-14T01:28:38.687Z,998.93
2019-01-14T01:29:38.693Z,998.93
2019-01-14T01:30:38.100Z,998.99
2019-01-14T01:31:38.238Z,998.94
2019-01-14T01:32:38.080Z,998.97
2019-01-14T01:33:38.696Z,998.96
2019-01-14T01:34:42.698Z,998.93
2019-01-14T01:35:39.723Z,999.04
2019-01-14T01:36:44.688Z,999.04
2019-01-14T01:37:38.062Z,999.02
2019-01-14T01:38:39.189Z,998.97
2019-01-14T01:39:38.210Z,999.10
2019-01-14T01:40:38.047Z,998.96
2019-01-14T01:41:38.689Z,998.98
2019-01-14T01:42:38.019Z,999.06
2019-01-14T01:43:38.721Z,999.05
2019-01-14T01:44:38.191Z,999.09
2019-01-14T01:45:37.938Z,999.04
2019-01-14T01:46:37.928Z,998.98
2019-01-14T01:47:37.970Z,999.10
2019-01-14T01:48:38.705Z,998.99
2019-01-14T01:49:37.950Z,999.31
2019-01-14T01:50:37.885Z,999.24
2019-01-14T01:51:37.882Z,999.15
2019-01-14T01:52:37.867Z,999.03
2019-01-14T01:53:39.720Z,999.07
2019-01-14T01:54:38.706Z,999.17
2019-01-14T01:55:39.699Z,999.10
2019-01-14T01:56:37.826Z,999.00
2019-01-14T01:57:38.249Z,999.11
2019-01-14T01:58:38.186Z,999.21
2019-01-14T01:59:37.835Z,999.22
2019-01-14T02:00:37.777Z,999.13
2019-01-14T02:01:38.690Z,999.10
2019-01-14T02:02:37.777Z,999.01
2019-01-14T02:03:37.748Z,999.17
2019-01-14T02:04:37.777Z,999.19
2019-01-14T02:05:37.725Z,999.43
2019-01-14T02:06:39.701Z,999.22
2019-01-14T02:07:37.705Z,999.33
2019-01-14T02:08:39.688Z,999.31
2019-01-14T02:09:38.225Z,999.45
2019-01-14T02:10:37.676Z,999.28
2019-01-14T02:11:37.661Z,999.36
2019-01-14T02:12:38.187Z,999.70
2019-01-14T02:13:37.735Z,999.37
2019-01-14T02:14:37.627Z,999.37
2019-01-14T02:15:38.187Z,999.37
2019-01-14T02:16:38.191Z,999.36
2019-01-14T02:17:38.191Z,999.39
2019-01-14T02:18:37.584Z,999.35
2019-01-14T02:19:38.198Z,999.45
2019-01-14T02:20:38.686Z,999.34
2019-01-14T02:21:38.198Z,999.44
2019-01-14T02:22:37.543Z,999.51
2019-01-14T02:23:39.217Z,999.34
2019-01-14T02:24:38.224Z,999.36
2019-01-14T02:25:39.208Z,999.49
2019-01-14T02:26:37.535Z,999.37
2019-01-14T02:27:37.486Z,999.43
2019-01-14T02:28:39.210Z,999.39
2019-01-14T02:29:39.206Z,999.36
2019-01-14T02:30:37.471Z,999.66
2019-01-14T02:31:38.197Z,999.54
2019-01-14T02:32:40.184Z,999.40
2019-01-14T02:33:37.419Z,999.50
2019-01-14T02:34:38.685Z,999.80
2019-01-14T02:35:38.182Z,999.51
2019-01-14T02:36:37.442Z,999.56
2019-01-14T02:37:37.381Z,999.64
2019-01-14T02:38:38.194Z,999.59
2019-01-14T02:39:40.183Z,999.50
2019-01-14T02:40:42.726Z,999.60
2019-01-14T02:41:37.336Z,999.58
2019-01-14T02:42:37.364Z,999.47
2019-01-14T02:43:37.312Z,999.56
2019-01-14T02:44:37.368Z,999.69
2019-01-14T02:45:38.189Z,999.63
2019-01-14T02:46:37.282Z,999.65
2019-01-14T02:47:37.681Z,999.77
2019-01-14T02:48:37.302Z,999.66
2019-01-14T02:49:40.184Z,999.92
2019-01-14T02:50:37.241Z,999.80
2019-01-14T02:51:37.700Z,999.59
2019-01-14T02:52:39.696Z,999.78
2019-01-14T02:53:37.209Z,999.63
2019-01-14T02:54:37.682Z,999.64
2019-01-14T02:55:37.227Z,999.75
2019-01-14T02:56:37.681Z,999.92
2019-01-14T02:57:37.681Z,999.81
2019-01-14T02:58:37.159Z,999.79
2019-01-14T02:59:37.687Z,999.81
2019-01-14T03:00:37.142Z,999.69
2019-01-14T03:01:37.168Z,999.89
2019-01-14T03:02:37.162Z,999.83
2019-01-14T03:03:37.100Z,999.86
2019-01-14T03:04:37.087Z,999.78
2019-01-14T03:05:39.682Z,999.77
2019-01-14T03:06:37.108Z,1000.00
2019-01-14T03:07:37.057Z,999.93
2019-01-14T03:08:37.098Z,999.83
2019-01-14T03:09:37.033Z,999.86
2019-01-14T03:10:37.680Z,999.83
2019-01-14T03:11:37.195Z,999.71
2019-01-14T03:12:37.683Z,999.85
2019-01-14T03:13:37.196Z,999.87
2019-01-14T03:14:36.982Z,999.91
2019-01-14T03:15:36.970Z,999.83
2019-01-14T03:16:36.992Z,999.82
2019-01-14T03:17:36.953Z,999.88
2019-01-14T03:18:38.693Z,999.87
2019-01-14T03:19:37.695Z,999.85
2019-01-14T03:20:36.920Z,999.86
2019-01-14T03:21:36.909Z,999.83
2019-01-14T03:22:36.894Z,999.87
2019-01-14T03:23:37.203Z,999.99
2019-01-14T03:24:36.876Z,999.90
2019-01-14T03:25:37.684Z,999.91
2019-01-14T03:26:38.696Z,999.84
2019-01-14T03:27:36.839Z,999.80
2019-01-14T03:28:37.193Z,999.97
2019-01-14T03:29:39.224Z,999.94
2019-01-14T03:30:36.814Z,999.81
2019-01-14T03:31:38.698Z,999.90
2019-01-14T03:32:39.683Z,999.89
2019-01-14T03:33:37.196Z,999.85
2019-01-14T03:34:37.685Z,999.76
2019-01-14T03:35:38.698Z,999.77
2019-01-14T03:36:36.741Z,999.81
2019-01-14T03:37:36.733Z,999.84
2019-01-14T03:38:37.207Z,999.83
2019-01-14T03:39:36.710Z,999.86
2019-01-14T03:40:37.682Z,999.88
2019-01-14T03:41:38.697Z,1000.02
2019-01-14T03:42:36.680Z,999.81
2019-01-14T03:43:37.195Z,999.85
2019-01-14T03:44:36.698Z,999.93
2019-01-14T03:45:38.185Z,999.89
2019-01-14T03:46:37.180Z,1000.14
2019-01-14T03:47:36.650Z,999.95
2019-01-14T03:48:36.614Z,1000.03
2019-01-14T03:49:38.186Z,1000.11
2019-01-14T03:50:36.700Z,1000.04
2019-01-14T03:51:37.680Z,1000.07
2019-01-14T03:52:41.191Z,1000.18
2019-01-14T03:53:37.189Z,1000.22
2019-01-14T03:54:37.694Z,1000.20
2019-01-14T03:55:36.536Z,1000.15
2019-01-14T03:56:36.527Z,1000.14
2019-01-14T03:57:37.681Z,1000.19
2019-01-14T03:58:37.191Z,1000.20
2019-01-14T03:59:36.498Z,1000.23
2019-01-14T04:00:38.186Z,1000.17
2019-01-14T04:01:36.474Z,1000.30
2019-01-14T04:02:38.186Z,1000.22
2019-01-14T04:03:36.689Z,1000.26
2019-01-14T04:04:36.442Z,1000.33
2019-01-14T04:05:37.679Z,1000.32
2019-01-14T04:06:36.425Z,1000.31
2019-01-14T04:07:37.186Z,1000.45
2019-01-14T04:08:36.708Z,1000.34
2019-01-14T04:09:39.181Z,1000.36
2019-01-14T04:10:37.213Z,1000.24
2019-01-14T04:11:38.204Z,1000.30
2019-01-14T04:12:36.356Z,1000.32
2019-01-14T04:13:37.186Z,1000.44
2019-01-14T04:14:37.179Z,1000.21
2019-01-14T04:15:36.321Z,1000.36
2019-01-14T04:16:38.191Z,1000.62
2019-01-14T04:17:37.192Z,1000.39
2019-01-14T04:18:37.684Z,1000.40
2019-01-14T04:19:36.281Z,1000.40
2019-01-14T04:20:39.181Z,1000.26
2019-01-14T04:21:36.740Z,1000.40
2019-01-14T04:22:47.337Z,1000.45
2019-01-14T04:23:38.190Z,1000.75
2019-01-14T04:24:37.176Z,1000.40
2019-01-14T04:25:37.265Z,1000.44
2019-01-14T04:26:36.675Z,1000.56
2019-01-14T04:27:36.242Z,1000.64
2019-01-14T04:28:37.183Z,1000.43
2019-01-14T04:29:36.218Z,1000.60
2019-01-14T04:30:37.730Z,1000.61
2019-01-14T04:31:36.150Z,1000.55
2019-01-14T04:32:36.227Z,1000.60
2019-01-14T04:33:36.182Z,1000.73
2019-01-14T04:34:38.676Z,1000.69
2019-01-14T04:35:37.710Z,1000.64
2019-01-14T04:36:36.681Z,1000.65
2019-01-14T04:37:36.079Z,1000.59
2019-01-14T04:38:36.677Z,1000.56
2019-01-14T04:39:36.111Z,1000.53
2019-01-14T04:40:36.051Z,1000.67
2019-01-14T04:41:37.710Z,1000.57
2019-01-14T04:42:36.686Z,1000.91
2019-01-14T04:43:36.689Z,1000.70
2019-01-14T04:44:36.677Z,1000.67
2019-01-14T04:45:36.187Z,1000.75
2019-01-14T04:46:35.993Z,1000.73
2019-01-14T04:47:37.172Z,1000.73
2019-01-14T04:48:36.020Z,1000.66
2019-01-14T04:49:35.964Z,1000.88
2019-01-14T04:50:36.674Z,1000.71
2019-01-14T04:51:36.677Z,1000.77
2019-01-14T04:52:36.676Z,1000.75
2019-01-14T04:53:35.911Z,1000.81
2019-01-14T04:54:35.939Z,1000.72
2019-01-14T04:55:35.889Z,1000.62
2019-01-14T04:56:37.707Z,1000.71
2019-01-14T04:57:37.704Z,1000.84
2019-01-14T04:58:35.859Z,1000.85
2019-01-14T04:59:42.681Z,1001.07
2019-01-14T05:00:36.697Z,1000.91
2019-01-14T05:01:38.196Z,1000.83
2019-01-14T05:02:37.715Z,1000.78
2019-01-14T05:03:37.672Z,1001.22
2019-01-14T05:04:46.889Z,1001.02
2019-01-14T05:05:39.192Z,1001.02
2019-01-14T05:06:40.687Z,1001.05
2019-01-14T05:07:36.178Z,1000.92
2019-01-14T05:08:35.794Z,1000.90
2019-01-14T05:09:38.673Z,1001.11
2019-01-14T05:10:39.196Z,1000.83
2019-01-14T05:11:36.676Z,1000.92
2019-01-14T05:12:35.766Z,1000.92
2019-01-14T05:13:36.684Z,1000.91
2019-01-14T05:14:35.687Z,1000.94
2019-01-14T05:15:37.014Z,1000.89
2019-01-14T05:16:37.205Z,1000.96
2019-01-14T05:17:35.655Z,1001.01
2019-01-14T05:18:35.648Z,1000.96
2019-01-14T05:19:36.174Z,1001.03
2019-01-14T05:20:35.630Z,1000.99
2019-01-14T05:21:35.659Z,1001.04
2019-01-14T05:22:35.645Z,1001.08
2019-01-14T05:23:35.587Z,1001.05
2019-01-14T05:24:35.578Z,1001.17
2019-01-14T05:25:35.618Z,1001.13
2019-01-14T05:26:35.608Z,1001.08
2019-01-14T05:27:35.547Z,1001.46
2019-01-14T05:28:35.549Z,1001.30
2019-01-14T05:29:35.671Z,1001.17
2019-01-14T05:30:37.183Z,1001.27
2019-01-14T05:31:35.511Z,1001.21
2019-01-14T05:32:35.493Z,1001.25
2019-01-14T05:33:37.196Z,1001.33
2019-01-14T05:34:36.198Z,1001.30
2019-01-14T05:35:35.460Z,1001.24
2019-01-14T05:36:35.490Z,1001.41
2019-01-14T05:37:37.560Z,1001.41
2019-01-14T05:38:35.463Z,1001.33
2019-01-14T05:39:35.415Z,1001.29
2019-01-14T05:40:40.202Z,1001.39
2019-01-14T05:41:38.702Z,1001.32
2019-01-14T05:42:35.384Z,1001.32
2019-01-14T05:43:36.348Z,1001.44
2019-01-14T05:44:35.405Z,1001.43
2019-01-14T05:45:35.356Z,1001.47
2019-01-14T05:46:35.344Z,1001.53
2019-01-14T05:47:35.330Z,1001.55
2019-01-14T05:48:37.213Z,1001.51
2019-01-14T05:49:36.674Z,1001.47
2019-01-14T05:50:35.686Z,1001.64
2019-01-14T05:51:37.192Z,1001.53
2019-01-14T05:52:35.687Z,1001.80
2019-01-14T05:53:36.169Z,1001.70
2019-01-14T05:54:35.256Z,1001.53
2019-01-14T05:55:36.169Z,1001.59
2019-01-14T05:56:35.247Z,1001.64
2019-01-14T05:57:35.226Z,1001.51
2019-01-14T05:58:35.254Z,1001.60
2019-01-14T05:59:37.195Z,1001.60
2019-01-14T06:00:35.190Z,1001.58
2019-01-14T06:01:35.257Z,1001.55
2019-01-14T06:02:35.180Z,1001.56
2019-01-14T06:03:36.684Z,1001.53
2019-01-14T06:04:35.164Z,1001.53
2019-01-14T06:05:39.713Z,1001.60
2019-01-14T06:06:35.680Z,1001.63
2019-01-14T06:07:35.220Z,1001.74
2019-01-14T06:08:35.212Z,1001.61
2019-01-14T06:09:35.103Z,1001.70
2019-01-14T06:10:35.148Z,1001.72
2019-01-14T06:11:36.239Z,1001.80
2019-01-14T06:12:35.108Z,1001.70
2019-01-14T06:13:35.696Z,1001.77
2019-01-14T06:14:35.683Z,1001.86
2019-01-14T06:15:36.688Z,1001.75
2019-01-14T06:16:35.085Z,1001.76
2019-01-14T06:17:35.016Z,1001.87
2019-01-14T06:18:35.005Z,1001.90
2019-01-14T06:19:35.029Z,1001.91
2019-01-14T06:20:34.990Z,1001.89
2019-01-14T06:21:35.021Z,1002.05
2019-01-14T06:22:36.698Z,1001.96
2019-01-14T06:23:37.680Z,1001.92
2019-01-14T06:24:34.941Z,1001.91
2019-01-14T06:25:34.926Z,1001.96
2019-01-14T06:26:36.693Z,1002.06
2019-01-14T06:27:34.948Z,1001.96
2019-01-14T06:28:34.993Z,1001.99
2019-01-14T06:29:34.882Z,1002.11
2019-01-14T06:30:35.711Z,1002.17
2019-01-14T06:31:36.171Z,1002.20
2019-01-14T06:32:34.856Z,1001.89
2019-01-14T06:33:34.873Z,1002.15
2019-01-14T06:34:34.844Z,1002.11
2019-01-14T06:35:34.865Z,1002.03
2019-01-14T06:36:34.812Z,1001.99
2019-01-14T06:37:34.801Z,1002.06
2019-01-14T06:38:35.220Z,1002.09
2019-01-14T06:39:34.779Z,1002.16
2019-01-14T06:40:34.769Z,1002.17
2019-01-14T06:41:34.796Z,1002.17
2019-01-14T06:42:35.681Z,1002.13
2019-01-14T06:43:35.668Z,1002.16
2019-01-14T06:44:34.726Z,1002.13
2019-01-14T06:45:35.173Z,1002.08
2019-01-14T06:46:34.761Z,1002.05
2019-01-14T06:47:35.191Z,1002.09
2019-01-14T06:48:36.696Z,1002.12
2019-01-14T06:49:36.269Z,1002.18
2019-01-14T06:50:34.711Z,1002.11
2019-01-14T06:51:34.764Z,1002.31
2019-01-14T06:52:34.641Z,1002.20
2019-01-14T06:53:34.626Z,1002.16
2019-01-14T06:54:37.201Z,1002.12
2019-01-14T06:55:34.637Z,1002.14
2019-01-14T06:56:34.769Z,1002.12
2019-01-14T06:57:34.627Z,1002.21
2019-01-14T06:58:34.588Z,1002.21
2019-01-14T06:59:34.562Z,1002.29
2019-01-14T07:00:34.559Z,1002.25
2019-01-14T07:01:34.544Z,1002.32
2019-01-14T07:02:34.546Z,1002.37
2019-01-14T07:03:34.564Z,1002.37
2019-01-14T07:04:34.510Z,1002.41
2019-01-14T07:05:34.518Z,1002.47
2019-01-14T07:06:34.487Z,1002.39
2019-01-14T07:07:34.476Z,1002.60
2019-01-14T07:08:34.462Z,1002.82
2019-01-14T07:09:34.543Z,1002.58
2019-01-14T07:10:34.462Z,1002.62
2019-01-14T07:11:34.426Z,1002.56
2019-01-14T07:12:34.444Z,1002.74
2019-01-14T07:13:34.616Z,1002.57
2019-01-14T07:14:34.428Z,1002.61
2019-01-14T07:15:37.275Z,1002.70
2019-01-14T07:16:34.369Z,1002.70
2019-01-14T07:17:34.363Z,1002.76
2019-01-14T07:18:34.461Z,1002.93
2019-01-14T07:19:34.350Z,1002.82
2019-01-14T07:20:34.343Z,1002.88
2019-01-14T07:21:35.179Z,1002.96
2019-01-14T07:22:34.313Z,1002.95
2019-01-14T07:23:34.318Z,1002.85
2019-01-14T07:24:34.305Z,1002.97
2019-01-14T07:25:34.331Z,1002.99
2019-01-14T07:26:34.261Z,1002.98
2019-01-14T07:27:34.265Z,1003.04
2019-01-14T07:28:34.248Z,1003.13
2019-01-14T07:29:34.233Z,1002.98
2019-01-14T07:30:34.275Z,1002.98
2019-01-14T07:31:34.211Z,1003.07
2019-01-14T07:32:34.204Z,1003.00
2019-01-14T07:33:34.229Z,1003.10
2019-01-14T07:34:34.196Z,1003.07
2019-01-14T07:35:34.168Z,1003.09
2019-01-14T07:36:34.200Z,1003.01
2019-01-14T07:37:34.149Z,1002.99
2019-01-14T07:38:34.135Z,1003.02
2019-01-14T07:39:34.140Z,1003.06
2019-01-14T07:40:34.165Z,1003.13
2019-01-14T07:41:34.164Z,1003.11
2019-01-14T07:42:34.107Z,1003.08
2019-01-14T07:43:34.678Z,1003.02
2019-01-14T07:44:34.070Z,1003.07
2019-01-14T07:45:34.063Z,1003.10
2019-01-14T07:46:34.051Z,1003.06
2019-01-14T07:47:34.088Z,1003.07
2019-01-14T07:48:34.042Z,1003.16
2019-01-14T07:49:34.017Z,1003.19
2019-01-14T07:50:34.020Z,1003.16
2019-01-14T07:51:34.018Z,1003.30
2019-01-14T07:52:34.699Z,1003.12
2019-01-14T07:53:34.029Z,1003.15
2019-01-14T07:54:33.960Z,1003.14
2019-01-14T07:55:33.981Z,1003.20
2019-01-14T07:56:33.987Z,1003.17
2019-01-14T07:57:33.944Z,1003.22
2019-01-14T07:58:33.922Z,1003.18
2019-01-14T07:59:33.948Z,1003.28
2019-01-14T08:00:33.924Z,1003.35
2019-01-14T08:01:33.903Z,1003.25
2019-01-14T08:02:33.930Z,1003.28
2019-01-14T08:03:33.864Z,1003.32
2019-01-14T08:04:33.870Z,1003.41
2019-01-14T08:05:33.852Z,1003.44
2019-01-14T08:06:33.886Z,1003.38
2019-01-14T08:07:33.892Z,1003.45
2019-01-14T08:08:33.903Z,1003.45
2019-01-14T08:09:33.857Z,1003.47
2019-01-14T08:10:33.830Z,1003.44
2019-01-14T08:11:33.797Z,1003.47
2019-01-14T08:12:33.943Z,1003.46
2019-01-14T08:13:33.780Z,1003.46
2019-01-14T08:14:33.905Z,1003.51
2019-01-14T08:15:33.805Z,1003.62
2019-01-14T08:16:33.788Z,1003.55
2019-01-14T08:17:34.213Z,1003.64
2019-01-14T08:18:33.715Z,1003.53
2019-01-14T08:19:33.779Z,1003.55
2019-01-14T08:20:35.697Z,1003.63
2019-01-14T08:21:33.723Z,1003.70
2019-01-14T08:22:33.696Z,1003.64
2019-01-14T08:23:33.740Z,1003.65
2019-01-14T08:24:33.696Z,1003.65
2019-01-14T08:25:33.642Z,1003.69
2019-01-14T08:26:33.616Z,1003.70
2019-01-14T08:27:33.625Z,1003.71
2019-01-14T08:28:33.625Z,1003.79
2019-01-14T08:29:33.638Z,1003.81
2019-01-14T08:30:33.577Z,1003.77
2019-01-14T08:31:33.567Z,1003.75
2019-01-14T08:32:33.561Z,1003.80
2019-01-14T08:33:33.586Z,1003.83
2019-01-14T08:34:33.541Z,1003.82
2019-01-14T08:35:33.570Z,1003.84
2019-01-14T08:36:33.559Z,1003.86
2019-01-14T08:37:33.502Z,1003.90
2019-01-14T08:38:33.536Z,1003.91
2019-01-14T08:39:33.492Z,1003.88
2019-01-14T08:40:33.530Z,1003.87
2019-01-14T08:41:33.496Z,1003.99
2019-01-14T08:42:33.447Z,1004.10
2019-01-14T08:43:33.456Z,1003.91
2019-01-14T08:44:33.440Z,1004.18
2019-01-14T08:45:33.418Z,1003.98
2019-01-14T08:46:33.585Z,1003.94
2019-01-14T08:47:33.416Z,1004.02
2019-01-14T08:48:33.394Z,1003.98
2019-01-14T08:49:33.384Z,1004.02
2019-01-14T08:50:33.392Z,1004.04
2019-01-14T08:51:33.355Z,1004.05
2019-01-14T08:52:33.444Z,1004.10
2019-01-14T08:53:34.216Z,1004.07
2019-01-14T08:54:33.320Z,1004.30
2019-01-14T08:55:33.355Z,1004.08
2019-01-14T08:56:33.429Z,1004.28
2019-01-14T08:57:33.287Z,1004.25
2019-01-14T08:58:33.384Z,1004.03
2019-01-14T08:59:33.277Z,1004.10
2019-01-14T09:00:33.259Z,1004.20
2019-01-14T09:01:33.271Z,1004.14
2019-01-14T09:02:33.301Z,1004.56
2019-01-14T09:03:33.235Z,1004.18
2019-01-14T09:04:33.373Z,1004.25
2019-01-14T09:05:33.209Z,1004.24
2019-01-14T09:06:33.210Z,1004.21
2019-01-14T09:07:33.252Z,1004.32
2019-01-14T09:08:33.169Z,1004.44
2019-01-14T09:09:33.178Z,1004.39
2019-01-14T09:10:33.151Z,1004.44
2019-01-14T09:11:33.149Z,1004.40
2019-01-14T09:12:33.130Z,1004.49
2019-01-14T09:13:33.197Z,1004.57
2019-01-14T09:14:33.134Z,1004.60
2019-01-14T09:15:33.110Z,1004.59
2019-01-14T09:16:33.098Z,1004.55
2019-01-14T09:17:33.146Z,1004.63
2019-01-14T09:18:33.060Z,1004.68
2019-01-14T09:19:33.164Z,1004.67
2019-01-14T09:20:33.039Z,1004.55
2019-01-14T09:21:33.097Z,1004.78
2019-01-14T09:22:33.017Z,1004.75
2019-01-14T09:23:33.088Z,1004.84
2019-01-14T09:24:33.008Z,1004.77
2019-01-14T09:25:32.984Z,1005.34
2019-01-14T09:26:33.016Z,1005.06
2019-01-14T09:27:32.961Z,1005.10
2019-01-14T09:28:33.002Z,1005.13
2019-01-14T09:29:32.941Z,1005.27
2019-01-14T09:30:32.965Z,1005.07
2019-01-14T09:31:32.986Z,1005.24
2019-01-14T09:32:32.924Z,1005.28
2019-01-14T09:33:32.902Z,1005.26
2019-01-14T09:34:32.895Z,1005.38
2019-01-14T09:35:32.883Z,1005.53
2019-01-14T09:36:32.893Z,1005.43
2019-01-14T09:37:32.902Z,1005.53
2019-01-14T09:38:36.004Z,1005.55
2019-01-14T09:39:32.851Z,1005.49
2019-01-14T09:40:32.973Z,1005.57
2019-01-14T09:41:32.806Z,1005.45
2019-01-14T09:42:33.083Z,1005.57
2019-01-14T09:43:32.826Z,1005.52
2019-01-14T09:44:32.777Z,1005.45
2019-01-14T09:45:32.787Z,1005.43
2019-01-14T09:46:32.774Z,1005.38
2019-01-14T09:47:32.779Z,1005.46
2019-01-14T09:48:32.779Z,1005.44
2019-01-14T09:49:32.742Z,1005.51
2019-01-14T09:50:32.771Z,1005.50
2019-01-14T09:51:32.709Z,1005.44
2019-01-14T09:52:32.706Z,1005.46
2019-01-14T09:53:32.679Z,1005.43
2019-01-14T09:54:32.677Z,1005.47
2019-01-14T09:55:32.739Z,1005.52
2019-01-14T09:56:32.684Z,1005.55
2019-01-14T09:57:32.799Z,1005.51
2019-01-14T09:58:32.669Z,1005.56
2019-01-14T09:59:32.635Z,1005.55
2019-01-14T10:00:32.610Z,1005.54
2019-01-14T10:01:32.631Z,1005.53
2019-01-14T10:02:32.585Z,1005.51
2019-01-14T10:03:32.571Z,1005.49
2019-01-14T10:04:32.562Z,1005.52
2019-01-14T10:05:32.557Z,1005.51
2019-01-14T10:06:32.552Z,1005.56
2019-01-14T10:07:32.593Z,1005.57
2019-01-14T10:08:32.520Z,1005.60
2019-01-14T10:09:32.559Z,1005.53
2019-01-14T10:10:32.511Z,1005.54
2019-01-14T10:11:32.513Z,1005.58
2019-01-14T10:12:32.474Z,1005.59
2019-01-14T10:13:32.530Z,1005.55
2019-01-14T10:14:32.458Z,1005.58
2019-01-14T10:15:32.441Z,1005.59
2019-01-14T10:16:32.440Z,1005.58
2019-01-14T10:17:32.423Z,1005.61
2019-01-14T10:18:32.413Z,1005.62
2019-01-14T10:19:32.461Z,1005.58
2019-01-14T10:20:32.395Z,1005.59
2019-01-14T10:21:32.380Z,1005.60
2019-01-14T10:22:32.377Z,1005.67
2019-01-14T10:23:32.355Z,1005.67
2019-01-14T10:24:32.401Z,1005.69
2019-01-14T10:25:32.351Z,1005.71
2019-01-14T10:26:32.342Z,1005.77
2019-01-14T10:27:32.347Z,1005.75
2019-01-14T10:28:32.308Z,1005.77
2019-01-14T10:29:32.295Z,1005.80
2019-01-14T10:30:32.337Z,1005.78
2019-01-14T10:31:32.279Z,1005.83
2019-01-14T10:32:32.260Z,1005.84
2019-01-14T10:33:32.257Z,1005.80
2019-01-14T10:34:32.255Z,1005.87
2019-01-14T10:35:32.243Z,1005.90
2019-01-14T10:36:32.301Z,1005.87
2019-01-14T10:37:32.217Z,1005.92
2019-01-14T10:38:32.272Z,1005.98
2019-01-14T10:39:32.200Z,1005.90
2019-01-14T10:40:32.179Z,1005.93
2019-01-14T10:41:32.162Z,1005.95
2019-01-14T10:42:32.198Z,1005.99
2019-01-14T10:43:32.186Z,1005.95
2019-01-14T10:44:32.206Z,1005.98
2019-01-14T10:45:33.167Z,1005.94
2019-01-14T10:46:32.116Z,1005.95
2019-01-14T10:47:32.848Z,1006.04
2019-01-14T10:48:32.090Z,1006.02
2019-01-14T10:49:32.120Z,1005.99
2019-01-14T10:50:32.106Z,1006.01
2019-01-14T10:51:32.050Z,1005.98
2019-01-14T10:52:32.047Z,1006.04
2019-01-14T10:53:32.041Z,1006.05
2019-01-14T10:54:32.033Z,1006.05
2019-01-14T10:55:32.018Z,1006.04
2019-01-14T10:56:32.044Z,1006.02
2019-01-14T10:57:32.025Z,1006.14
2019-01-14T10:58:31.980Z,1006.07
2019-01-14T10:59:31.968Z,1006.14
2019-01-14T11:00:31.963Z,1006.13
2019-01-14T11:01:31.958Z,1006.13
2019-01-14T11:02:32.161Z,1006.20
2019-01-14T11:03:32.008Z,1006.20
2019-01-14T11:04:31.957Z,1006.13
2019-01-14T11:05:31.900Z,1006.12
2019-01-14T11:06:31.895Z,1006.21
2019-01-14T11:07:31.921Z,1006.20
2019-01-14T11:08:31.912Z,1006.21
2019-01-14T11:09:31.928Z,1006.16
2019-01-14T11:10:31.847Z,1006.20
2019-01-14T11:11:31.836Z,1006.16
2019-01-14T11:12:31.862Z,1006.28
2019-01-14T11:13:31.814Z,1006.26
2019-01-14T11:14:31.856Z,1006.34
2019-01-14T11:15:31.801Z,1006.31
2019-01-14T11:16:31.820Z,1006.24
2019-01-14T11:17:31.818Z,1006.33
2019-01-14T11:18:31.762Z,1006.23
2019-01-14T11:19:31.810Z,1006.27
2019-01-14T11:20:31.748Z,1006.32
2019-01-14T11:21:31.732Z,1006.34
2019-01-14T11:22:31.792Z,1006.25
2019-01-14T11:23:31.712Z,1006.31
2019-01-14T11:24:31.703Z,1006.33
2019-01-14T11:25:31.684Z,1006.31
2019-01-14T11:26:31.714Z,1006.14
2019-01-14T11:27:31.661Z,1006.32
2019-01-14T11:28:31.818Z,1006.38
2019-01-14T11:29:31.650Z,1006.38
2019-01-14T11:30:31.631Z,1006.40
2019-01-14T11:31:31.649Z,1006.48
2019-01-14T11:32:31.632Z,1006.42
2019-01-14T11:33:31.639Z,1006.49
2019-01-14T11:34:31.638Z,1006.45
2019-01-14T11:35:31.581Z,1006.43
2019-01-14T11:36:31.573Z,1006.46
2019-01-14T11:37:31.727Z,1006.50
2019-01-14T11:38:31.608Z,1006.47
2019-01-14T11:39:31.580Z,1006.47
2019-01-14T11:40:31.790Z,1006.49
2019-01-14T11:41:31.579Z,1006.50
2019-01-14T11:42:31.494Z,1006.44
2019-01-14T11:43:31.499Z,1006.48
2019-01-14T11:44:31.496Z,1006.42
2019-01-14T11:45:31.469Z,1006.44
2019-01-14T11:46:31.558Z,1006.39
2019-01-14T11:47:33.572Z,1006.41
2019-01-14T11:48:31.442Z,1006.45
2019-01-14T11:49:31.431Z,1006.40
2019-01-14T11:50:31.415Z,1006.34
2019-01-14T11:51:31.400Z,1006.46
2019-01-14T11:52:31.698Z,1006.44
2019-01-14T11:53:31.390Z,1006.39
2019-01-14T11:54:31.395Z,1006.41
2019-01-14T11:55:31.362Z,1006.46
2019-01-14T11:56:31.355Z,1006.50
2019-01-14T11:57:31.399Z,1006.47
2019-01-14T11:58:31.326Z,1006.47
2019-01-14T11:59:31.315Z,1006.54
2019-01-14T12:00:36.564Z,1006.74
2019-01-14T12:01:32.307Z,1006.95
2019-01-14T12:02:31.348Z,1007.01
2019-01-14T12:03:31.268Z,1007.06
2019-01-14T12:04:31.285Z,1007.06
2019-01-14T12:05:31.263Z,1007.10
2019-01-14T12:06:31.241Z,1007.29
2019-01-14T12:07:31.252Z,1007.03
2019-01-14T12:08:31.268Z,1007.23
2019-01-14T12:09:31.219Z,1007.31
2019-01-14T12:10:31.204Z,1007.24
2019-01-14T12:11:31.231Z,1007.16
2019-01-14T12:12:31.215Z,1007.17